sensor_id;sensor_type;location;lat;lon;timestamp;pressure;altitude;pressure_sealevel;temperature;humidity
46955;BME280;32708;51.212;6.788;2023-07-16T00:00:12;100341.56;;;28.71;75.59
46955;BME280;32708;51.212;6.788;2023-07-16T00:02:41;100358.19;;;28.78;75.40
46955;BME280;32708;51.212;6.788;2023-07-16T00:05:07;100352.97;;;28.04;77.13
46955;BME280;32708;51.212;6.788;2023-07-16T00:07:35;100354.38;;;27.70;79.73
46955;BME280;32708;51.212;6.788;2023-07-16T00:10:01;100357.91;;;28.25;77.37
46955;BME280;32708;51.212;6.788;2023-07-16T00:12:28;100355.91;;;28.39;76.36
46955;BME280;32708;51.212;6.788;2023-07-16T00:14:54;100372.34;;;27.86;78.53
46955;BME280;32708;51.212;6.788;2023-07-16T00:17:21;100370.38;;;28.24;77.74
46955;BME280;32708;51.212;6.788;2023-07-16T00:19:47;100362.31;;;28.39;75.95
46955;BME280;32708;51.212;6.788;2023-07-16T00:22:13;100379.34;;;28.19;76.52
46955;BME280;32708;51.212;6.788;2023-07-16T00:24:39;100379.69;;;28.09;77.84
46955;BME280;32708;51.212;6.788;2023-07-16T00:27:05;100389.53;;;27.75;79.21
46955;BME280;32708;51.212;6.788;2023-07-16T00:29:31;100392.94;;;27.66;80.04
46955;BME280;32708;51.212;6.788;2023-07-16T00:31:57;100389.78;;;27.64;80.17
46955;BME280;32708;51.212;6.788;2023-07-16T00:34:23;100385.00;;;27.65;80.42
46955;BME280;32708;51.212;6.788;2023-07-16T00:36:50;100383.41;;;28.18;78.21
46955;BME280;32708;51.212;6.788;2023-07-16T00:39:16;100391.59;;;28.25;78.30
46955;BME280;32708;51.212;6.788;2023-07-16T00:41:42;100399.81;;;28.33;77.33
46955;BME280;32708;51.212;6.788;2023-07-16T00:44:08;100396.41;;;28.76;75.44
46955;BME280;32708;51.212;6.788;2023-07-16T00:46:34;100398.78;;;28.27;77.59
46955;BME280;32708;51.212;6.788;2023-07-16T00:49:02;100401.59;;;28.01;79.41
46955;BME280;32708;51.212;6.788;2023-07-16T00:51:31;100405.34;;;28.36;77.99
46955;BME280;32708;51.212;6.788;2023-07-16T00:53:57;100395.09;;;28.30;77.21
46955;BME280;32708;51.212;6.788;2023-07-16T00:56:24;100397.34;;;28.35;77.63
46955;BME280;32708;51.212;6.788;2023-07-16T00:58:50;100389.59;;;28.39;77.57
46955;BME280;32708;51.212;6.788;2023-07-16T01:01:16;100377.69;;;28.35;77.90
46955;BME280;32708;51.212;6.788;2023-07-16T01:03:42;100384.16;;;27.81;79.57
46955;BME280;32708;51.212;6.788;2023-07-16T01:06:38;100395.84;;;28.05;79.23
46955;BME280;32708;51.212;6.788;2023-07-16T01:09:19;100391.56;;;28.00;79.48
46955;BME280;32708;51.212;6.788;2023-07-16T01:11:47;100389.16;;;28.40;77.44
46955;BME280;32708;51.212;6.788;2023-07-16T01:14:17;100391.03;;;28.56;75.58
46955;BME280;32708;51.212;6.788;2023-07-16T01:16:44;100385.06;;;28.29;77.30
46955;BME280;32708;51.212;6.788;2023-07-16T01:19:11;100397.69;;;28.49;76.83
46955;BME280;32708;51.212;6.788;2023-07-16T01:30:19;100398.41;;;27.99;78.97
46955;BME280;32708;51.212;6.788;2023-07-16T01:32:47;100394.41;;;28.25;77.58
46955;BME280;32708;51.212;6.788;2023-07-16T01:35:15;100392.06;;;28.62;75.26
46955;BME280;32708;51.212;6.788;2023-07-16T01:37:42;100392.25;;;28.81;74.03
46955;BME280;32708;51.212;6.788;2023-07-16T01:40:09;100393.75;;;28.34;75.81
46955;BME280;32708;51.212;6.788;2023-07-16T01:42:35;100398.31;;;27.90;77.20
46955;BME280;32708;51.212;6.788;2023-07-16T01:45:03;100401.28;;;27.70;77.79
46955;BME280;32708;51.212;6.788;2023-07-16T01:48:14;100410.72;;;28.43;75.16
46955;BME280;32708;51.212;6.788;2023-07-16T01:50:42;100409.59;;;27.74;78.06
46955;BME280;32708;51.212;6.788;2023-07-16T01:53:08;100410.19;;;27.81;77.28
46955;BME280;32708;51.212;6.788;2023-07-16T01:55:34;100412.44;;;27.86;77.02
46955;BME280;32708;51.212;6.788;2023-07-16T01:58:00;100428.13;;;27.84;77.46
46955;BME280;32708;51.212;6.788;2023-07-16T02:00:26;100425.81;;;27.66;78.33
46955;BME280;32708;51.212;6.788;2023-07-16T02:02:52;100417.03;;;27.80;78.19
46955;BME280;32708;51.212;6.788;2023-07-16T02:05:18;100429.84;;;27.36;79.22
46955;BME280;32708;51.212;6.788;2023-07-16T02:07:44;100424.34;;;27.32;79.75
46955;BME280;32708;51.212;6.788;2023-07-16T02:10:11;100426.69;;;27.92;77.51
46955;BME280;32708;51.212;6.788;2023-07-16T02:12:37;100426.19;;;27.68;77.62
46955;BME280;32708;51.212;6.788;2023-07-16T02:15:03;100432.03;;;27.74;77.88
46955;BME280;32708;51.212;6.788;2023-07-16T02:17:34;100431.63;;;27.30;78.69
46955;BME280;32708;51.212;6.788;2023-07-16T02:20:00;100434.28;;;27.50;78.83
46955;BME280;32708;51.212;6.788;2023-07-16T02:22:28;100434.13;;;27.40;78.59
46955;BME280;32708;51.212;6.788;2023-07-16T02:24:56;100435.75;;;27.25;79.28
46955;BME280;32708;51.212;6.788;2023-07-16T02:27:22;100448.50;;;27.72;77.88
46955;BME280;32708;51.212;6.788;2023-07-16T02:29:48;100455.78;;;26.91;80.71
46955;BME280;32708;51.212;6.788;2023-07-16T02:32:16;100453.69;;;27.28;78.84
46955;BME280;32708;51.212;6.788;2023-07-16T02:34:42;100456.41;;;26.82;80.79
46955;BME280;32708;51.212;6.788;2023-07-16T02:37:08;100449.84;;;27.22;78.61
46955;BME280;32708;51.212;6.788;2023-07-16T02:39:34;100455.09;;;27.20;78.82
46955;BME280;32708;51.212;6.788;2023-07-16T02:42:01;100457.38;;;26.92;79.80
46955;BME280;32708;51.212;6.788;2023-07-16T02:44:27;100469.19;;;26.67;80.76
46955;BME280;32708;51.212;6.788;2023-07-16T02:46:53;100464.81;;;26.66;80.00
46955;BME280;32708;51.212;6.788;2023-07-16T02:49:22;100464.09;;;26.78;80.68
46955;BME280;32708;51.212;6.788;2023-07-16T02:51:51;100480.16;;;26.42;81.88
46955;BME280;32708;51.212;6.788;2023-07-16T02:54:17;100474.06;;;26.63;81.09
46955;BME280;32708;51.212;6.788;2023-07-16T02:56:43;100473.66;;;26.81;79.71
46955;BME280;32708;51.212;6.788;2023-07-16T02:59:09;100476.91;;;26.43;79.79
46955;BME280;32708;51.212;6.788;2023-07-16T03:01:36;100484.81;;;26.28;80.47
46955;BME280;32708;51.212;6.788;2023-07-16T03:04:04;100488.16;;;26.23;80.91
46955;BME280;32708;51.212;6.788;2023-07-16T03:06:30;100489.19;;;26.49;79.39
46955;BME280;32708;51.212;6.788;2023-07-16T03:08:56;100482.72;;;25.53;81.26
46955;BME280;32708;51.212;6.788;2023-07-16T03:11:22;100491.78;;;26.20;79.19
46955;BME280;32708;51.212;6.788;2023-07-16T03:13:49;100486.88;;;26.80;76.01
46955;BME280;32708;51.212;6.788;2023-07-16T03:16:15;100489.09;;;25.97;77.64
46955;BME280;32708;51.212;6.788;2023-07-16T03:18:41;100490.56;;;26.41;75.49
46955;BME280;32708;51.212;6.788;2023-07-16T03:21:08;100493.50;;;26.54;74.83
46955;BME280;32708;51.212;6.788;2023-07-16T03:23:34;100495.75;;;26.23;75.13
46955;BME280;32708;51.212;6.788;2023-07-16T03:26:00;100494.75;;;25.93;75.61
46955;BME280;32708;51.212;6.788;2023-07-16T03:28:27;100498.38;;;26.50;73.17
46955;BME280;32708;51.212;6.788;2023-07-16T03:30:53;100499.00;;;26.01;74.57
46955;BME280;32708;51.212;6.788;2023-07-16T03:33:20;100501.22;;;26.66;72.06
46955;BME280;32708;51.212;6.788;2023-07-16T03:35:48;100503.25;;;26.66;71.43
46955;BME280;32708;51.212;6.788;2023-07-16T03:38:18;100511.38;;;26.76;71.45
46955;BME280;32708;51.212;6.788;2023-07-16T03:40:48;100505.28;;;26.25;72.07
46955;BME280;32708;51.212;6.788;2023-07-16T03:43:16;100517.06;;;26.37;71.83
46955;BME280;32708;51.212;6.788;2023-07-16T03:45:43;100517.03;;;26.56;70.85
46955;BME280;32708;51.212;6.788;2023-07-16T03:48:10;100516.34;;;26.69;70.24
46955;BME280;32708;51.212;6.788;2023-07-16T03:50:37;100528.06;;;26.64;69.88
46955;BME280;32708;51.212;6.788;2023-07-16T03:53:03;100537.09;;;26.15;72.10
46955;BME280;32708;51.212;6.788;2023-07-16T03:55:30;100534.72;;;26.70;70.67
46955;BME280;32708;51.212;6.788;2023-07-16T03:57:56;100530.53;;;26.22;72.03
46955;BME280;32708;51.212;6.788;2023-07-16T04:00:23;100535.13;;;26.88;68.75
46955;BME280;32708;51.212;6.788;2023-07-16T04:02:51;100537.50;;;26.14;70.77
46955;BME280;32708;51.212;6.788;2023-07-16T04:05:19;100543.09;;;26.53;69.29
46955;BME280;32708;51.212;6.788;2023-07-16T04:07:45;100536.53;;;26.96;67.11
46955;BME280;32708;51.212;6.788;2023-07-16T04:10:11;100542.44;;;27.51;65.54
46955;BME280;32708;51.212;6.788;2023-07-16T04:12:37;100549.34;;;26.61;67.25
46955;BME280;32708;51.212;6.788;2023-07-16T04:15:08;100542.50;;;27.80;63.57
46955;BME280;32708;51.212;6.788;2023-07-16T04:17:36;100551.44;;;27.75;63.12
46955;BME280;32708;51.212;6.788;2023-07-16T04:20:03;100561.25;;;27.66;63.11
46955;BME280;32708;51.212;6.788;2023-07-16T04:22:37;100552.47;;;27.81;62.42
46955;BME280;32708;51.212;6.788;2023-07-16T04:25:03;100550.38;;;27.36;63.30
46955;BME280;32708;51.212;6.788;2023-07-16T04:27:30;100548.09;;;27.63;62.06
46955;BME280;32708;51.212;6.788;2023-07-16T04:29:56;100555.75;;;27.47;61.77
46955;BME280;32708;51.212;6.788;2023-07-16T04:32:22;100550.44;;;28.39;59.82
46955;BME280;32708;51.212;6.788;2023-07-16T04:34:48;100541.81;;;29.36;55.43
46955;BME280;32708;51.212;6.788;2023-07-16T04:37:14;100554.84;;;28.53;57.30
46955;BME280;32708;51.212;6.788;2023-07-16T04:39:40;100547.88;;;29.47;54.49
46955;BME280;32708;51.212;6.788;2023-07-16T04:42:06;100565.88;;;28.60;56.20
46955;BME280;32708;51.212;6.788;2023-07-16T04:44:32;100553.44;;;29.25;54.47
46955;BME280;32708;51.212;6.788;2023-07-16T04:46:58;100571.63;;;29.46;53.92
46955;BME280;32708;51.212;6.788;2023-07-16T04:49:24;100574.38;;;29.11;54.06
46955;BME280;32708;51.212;6.788;2023-07-16T04:51:51;100576.81;;;28.84;55.23
46955;BME280;32708;51.212;6.788;2023-07-16T04:54:17;100586.22;;;28.77;54.83
46955;BME280;32708;51.212;6.788;2023-07-16T04:56:43;100581.88;;;29.14;53.46
46955;BME280;32708;51.212;6.788;2023-07-16T04:59:09;100587.91;;;29.98;51.88
46955;BME280;32708;51.212;6.788;2023-07-16T05:01:35;100577.00;;;30.66;49.12
46955;BME280;32708;51.212;6.788;2023-07-16T05:04:01;100595.81;;;29.56;51.46
46955;BME280;32708;51.212;6.788;2023-07-16T05:06:27;100601.69;;;29.11;53.34
46955;BME280;32708;51.212;6.788;2023-07-16T05:08:53;100596.31;;;28.62;53.96
46955;BME280;32708;51.212;6.788;2023-07-16T05:11:19;100614.28;;;30.26;52.07
46955;BME280;32708;51.212;6.788;2023-07-16T05:13:45;100611.53;;;30.13;51.22
46955;BME280;32708;51.212;6.788;2023-07-16T05:16:12;100605.84;;;30.70;48.78
46955;BME280;32708;51.212;6.788;2023-07-16T05:18:38;100604.59;;;30.27;48.92
46955;BME280;32708;51.212;6.788;2023-07-16T05:21:04;100606.97;;;30.51;48.04
46955;BME280;32708;51.212;6.788;2023-07-16T05:23:31;100605.91;;;30.35;48.62
46955;BME280;32708;51.212;6.788;2023-07-16T05:25:57;100604.94;;;31.63;46.07
46955;BME280;32708;51.212;6.788;2023-07-16T05:28:24;100613.56;;;30.00;48.75
46955;BME280;32708;51.212;6.788;2023-07-16T05:31:01;100617.00;;;31.45;45.93
46955;BME280;32708;51.212;6.788;2023-07-16T05:33:28;100615.38;;;31.26;45.10
46955;BME280;32708;51.212;6.788;2023-07-16T05:35:54;100623.00;;;30.19;47.70
46955;BME280;32708;51.212;6.788;2023-07-16T05:38:20;100624.66;;;30.51;46.21
46955;BME280;32708;51.212;6.788;2023-07-16T05:40:46;100625.75;;;31.07;45.71
46955;BME280;32708;51.212;6.788;2023-07-16T05:43:12;100634.78;;;29.92;47.42
46955;BME280;32708;51.212;6.788;2023-07-16T05:45:40;100632.78;;;31.33;45.18
46955;BME280;32708;51.212;6.788;2023-07-16T05:48:06;100626.22;;;30.52;45.85
46955;BME280;32708;51.212;6.788;2023-07-16T05:50:33;100634.69;;;29.83;46.31
46955;BME280;32708;51.212;6.788;2023-07-16T05:52:59;100638.38;;;30.27;45.63
46955;BME280;32708;51.212;6.788;2023-07-16T05:55:25;100638.38;;;29.93;46.21
46955;BME280;32708;51.212;6.788;2023-07-16T05:57:52;100643.59;;;31.04;43.97
46955;BME280;32708;51.212;6.788;2023-07-16T06:00:19;100644.56;;;31.41;43.11
46955;BME280;32708;51.212;6.788;2023-07-16T06:02:45;100645.00;;;29.99;45.69
46955;BME280;32708;51.212;6.788;2023-07-16T06:05:11;100638.22;;;30.87;44.40
46955;BME280;32708;51.212;6.788;2023-07-16T06:07:37;100639.00;;;30.66;43.77
46955;BME280;32708;51.212;6.788;2023-07-16T06:10:03;100632.19;;;32.15;40.70
46955;BME280;32708;51.212;6.788;2023-07-16T06:12:30;100633.81;;;30.86;43.27
46955;BME280;32708;51.212;6.788;2023-07-16T06:14:56;100639.53;;;30.30;43.99
46955;BME280;32708;51.212;6.788;2023-07-16T06:17:22;100640.50;;;30.36;44.97
46955;BME280;32708;51.212;6.788;2023-07-16T06:19:48;100644.41;;;29.18;45.63
46955;BME280;32708;51.212;6.788;2023-07-16T06:22:16;100637.50;;;30.52;43.25
46955;BME280;32708;51.212;6.788;2023-07-16T06:24:42;100642.00;;;31.25;42.48
46955;BME280;32708;51.212;6.788;2023-07-16T06:27:08;100641.56;;;29.82;43.46
46955;BME280;32708;51.212;6.788;2023-07-16T06:29:34;100653.09;;;29.37;45.86
46955;BME280;32708;51.212;6.788;2023-07-16T06:32:00;100652.38;;;30.53;43.27
46955;BME280;32708;51.212;6.788;2023-07-16T06:34:26;100643.03;;;30.43;42.67
46955;BME280;32708;51.212;6.788;2023-07-16T06:36:53;100657.59;;;30.07;43.69
46955;BME280;32708;51.212;6.788;2023-07-16T06:39:20;100650.94;;;31.72;41.89
46955;BME280;32708;51.212;6.788;2023-07-16T06:41:46;100651.38;;;30.90;41.63
46955;BME280;32708;51.212;6.788;2023-07-16T06:44:14;100666.03;;;30.63;41.50
46955;BME280;32708;51.212;6.788;2023-07-16T06:46:40;100652.16;;;31.22;40.55
46955;BME280;32708;51.212;6.788;2023-07-16T06:49:07;100658.63;;;30.35;41.90
46955;BME280;32708;51.212;6.788;2023-07-16T06:51:33;100657.72;;;30.16;42.26
46955;BME280;32708;51.212;6.788;2023-07-16T06:54:00;100646.88;;;30.71;40.72
46955;BME280;32708;51.212;6.788;2023-07-16T06:56:26;100653.53;;;31.58;39.19
46955;BME280;32708;51.212;6.788;2023-07-16T06:58:52;100644.25;;;32.52;37.84
46955;BME280;32708;51.212;6.788;2023-07-16T07:01:20;100649.69;;;31.24;39.78
46955;BME280;32708;51.212;6.788;2023-07-16T07:03:46;100657.13;;;31.09;39.88
46955;BME280;32708;51.212;6.788;2023-07-16T07:06:12;100661.03;;;31.11;39.48
46955;BME280;32708;51.212;6.788;2023-07-16T07:08:38;100654.88;;;30.73;39.30
46955;BME280;32708;51.212;6.788;2023-07-16T07:11:05;100655.63;;;30.95;39.44
46955;BME280;32708;51.212;6.788;2023-07-16T07:13:31;100666.94;;;30.73;40.31
46955;BME280;32708;51.212;6.788;2023-07-16T07:15:57;100657.47;;;31.51;38.01
46955;BME280;32708;51.212;6.788;2023-07-16T07:18:23;100654.31;;;32.44;37.11
46955;BME280;32708;51.212;6.788;2023-07-16T07:20:49;100662.44;;;32.61;37.31
46955;BME280;32708;51.212;6.788;2023-07-16T07:23:16;100669.78;;;31.35;39.03
46955;BME280;32708;51.212;6.788;2023-07-16T07:25:42;100673.38;;;31.36;38.50
46955;BME280;32708;51.212;6.788;2023-07-16T07:28:08;100660.56;;;32.21;37.09
46955;BME280;32708;51.212;6.788;2023-07-16T07:30:37;100663.53;;;31.09;37.74
46955;BME280;32708;51.212;6.788;2023-07-16T07:33:03;100672.28;;;31.33;37.82
46955;BME280;32708;51.212;6.788;2023-07-16T07:35:29;100673.69;;;31.07;38.08
46955;BME280;32708;51.212;6.788;2023-07-16T07:37:55;100674.75;;;31.71;38.16
46955;BME280;32708;51.212;6.788;2023-07-16T07:40:21;100666.63;;;31.73;37.40
46955;BME280;32708;51.212;6.788;2023-07-16T07:42:47;100666.38;;;31.18;37.59
46955;BME280;32708;51.212;6.788;2023-07-16T07:45:14;100665.81;;;31.73;37.25
46955;BME280;32708;51.212;6.788;2023-07-16T07:47:41;100667.78;;;32.22;36.01
46955;BME280;32708;51.212;6.788;2023-07-16T07:50:08;100672.81;;;32.09;36.07
46955;BME280;32708;51.212;6.788;2023-07-16T07:52:34;100683.16;;;32.21;35.44
46955;BME280;32708;51.212;6.788;2023-07-16T07:55:01;100672.47;;;32.07;35.73
46955;BME280;32708;51.212;6.788;2023-07-16T07:57:28;100676.69;;;30.59;37.87
46955;BME280;32708;51.212;6.788;2023-07-16T07:59:55;100674.22;;;31.95;36.76
46955;BME280;32708;51.212;6.788;2023-07-16T08:02:25;100681.59;;;32.20;35.70
46955;BME280;32708;51.212;6.788;2023-07-16T08:04:54;100677.97;;;32.28;36.08
46955;BME280;32708;51.212;6.788;2023-07-16T08:07:39;100680.03;;;32.19;35.45
46955;BME280;32708;51.212;6.788;2023-07-16T08:10:06;100682.41;;;31.62;36.58
46955;BME280;32708;51.212;6.788;2023-07-16T08:12:32;100680.72;;;31.02;37.18
46955;BME280;32708;51.212;6.788;2023-07-16T08:14:58;100686.97;;;30.97;36.84
46955;BME280;32708;51.212;6.788;2023-07-16T08:17:24;100690.31;;;30.83;36.96
46955;BME280;32708;51.212;6.788;2023-07-16T08:19:50;100696.72;;;31.05;36.76
46955;BME280;32708;51.212;6.788;2023-07-16T08:22:17;100695.41;;;32.18;35.66
46955;BME280;32708;51.212;6.788;2023-07-16T08:24:43;100700.94;;;31.72;36.25
46955;BME280;32708;51.212;6.788;2023-07-16T08:27:09;100685.41;;;30.96;36.25
46955;BME280;32708;51.212;6.788;2023-07-16T08:29:36;100686.53;;;30.20;37.35
46955;BME280;32708;51.212;6.788;2023-07-16T08:32:03;100693.81;;;30.30;36.73
46955;BME280;32708;51.212;6.788;2023-07-16T08:34:29;100693.63;;;31.43;35.80
46955;BME280;32708;51.212;6.788;2023-07-16T08:36:55;100697.84;;;31.79;34.77
46955;BME280;32708;51.212;6.788;2023-07-16T08:39:21;100692.84;;;31.92;35.12
46955;BME280;32708;51.212;6.788;2023-07-16T08:41:48;100699.66;;;32.22;34.37
46955;BME280;32708;51.212;6.788;2023-07-16T08:44:15;100689.28;;;30.89;35.84
46955;BME280;32708;51.212;6.788;2023-07-16T08:46:41;100692.59;;;32.27;33.51
46955;BME280;32708;51.212;6.788;2023-07-16T08:49:11;100696.47;;;30.47;36.00
46955;BME280;32708;51.212;6.788;2023-07-16T08:51:39;100699.97;;;32.43;33.49
46955;BME280;32708;51.212;6.788;2023-07-16T08:54:07;100705.25;;;33.56;32.76
46955;BME280;32708;51.212;6.788;2023-07-16T08:56:34;100705.47;;;32.74;33.52
46955;BME280;32708;51.212;6.788;2023-07-16T08:59:02;100695.56;;;30.93;35.85
46955;BME280;32708;51.212;6.788;2023-07-16T09:01:30;100708.75;;;32.17;34.57
46955;BME280;32708;51.212;6.788;2023-07-16T09:03:57;100708.16;;;31.02;35.84
46955;BME280;32708;51.212;6.788;2023-07-16T09:06:24;100717.88;;;30.44;36.28
46955;BME280;32708;51.212;6.788;2023-07-16T09:08:50;100720.81;;;30.75;36.24
46955;BME280;32708;51.212;6.788;2023-07-16T09:11:17;100719.50;;;30.32;36.55
46955;BME280;32708;51.212;6.788;2023-07-16T09:13:48;100706.25;;;31.70;35.04
46955;BME280;32708;51.212;6.788;2023-07-16T09:16:17;100714.13;;;30.82;35.99
46955;BME280;32708;51.212;6.788;2023-07-16T09:18:44;100721.25;;;33.26;33.36
46955;BME280;32708;51.212;6.788;2023-07-16T09:21:11;100709.88;;;32.75;33.72
46955;BME280;32708;51.212;6.788;2023-07-16T09:23:37;100720.06;;;31.06;35.64
46955;BME280;32708;51.212;6.788;2023-07-16T09:26:04;100730.31;;;30.34;37.16
46955;BME280;32708;51.212;6.788;2023-07-16T09:28:32;100724.44;;;30.63;36.85
46955;BME280;32708;51.212;6.788;2023-07-16T09:31:05;100719.94;;;31.09;35.37
46955;BME280;32708;51.212;6.788;2023-07-16T09:33:33;100727.41;;;31.03;35.92
46955;BME280;32708;51.212;6.788;2023-07-16T09:36:00;100726.69;;;30.90;36.44
46955;BME280;32708;51.212;6.788;2023-07-16T09:38:28;100722.56;;;31.26;36.07
46955;BME280;32708;51.212;6.788;2023-07-16T09:40:56;100727.22;;;30.98;36.14
46955;BME280;32708;51.212;6.788;2023-07-16T09:43:22;100724.72;;;30.08;37.31
46955;BME280;32708;51.212;6.788;2023-07-16T09:45:48;100714.56;;;31.02;36.27
46955;BME280;32708;51.212;6.788;2023-07-16T09:48:14;100733.38;;;31.58;35.40
46955;BME280;32708;51.212;6.788;2023-07-16T09:50:50;100736.44;;;31.20;36.43
46955;BME280;32708;51.212;6.788;2023-07-16T09:53:20;100740.53;;;30.40;37.55
46955;BME280;32708;51.212;6.788;2023-07-16T09:55:48;100734.81;;;30.31;37.79
46955;BME280;32708;51.212;6.788;2023-07-16T09:58:20;100732.94;;;30.85;37.12
46955;BME280;32708;51.212;6.788;2023-07-16T10:00:49;100727.66;;;30.05;37.64
46955;BME280;32708;51.212;6.788;2023-07-16T10:03:16;100733.44;;;30.92;37.28
46955;BME280;32708;51.212;6.788;2023-07-16T10:05:43;100740.59;;;31.59;35.94
46955;BME280;32708;51.212;6.788;2023-07-16T10:08:18;100739.03;;;30.83;37.02
46955;BME280;32708;51.212;6.788;2023-07-16T10:10:54;100730.28;;;31.34;36.01
46955;BME280;32708;51.212;6.788;2023-07-16T10:13:24;100735.47;;;31.14;37.12
46955;BME280;32708;51.212;6.788;2023-07-16T10:15:56;100735.50;;;31.85;35.45
46955;BME280;32708;51.212;6.788;2023-07-16T10:18:31;100736.56;;;31.38;36.22
46955;BME280;32708;51.212;6.788;2023-07-16T10:21:04;100732.78;;;31.10;36.28
46955;BME280;32708;51.212;6.788;2023-07-16T10:23:41;100736.19;;;31.05;37.10
46955;BME280;32708;51.212;6.788;2023-07-16T10:26:13;100735.09;;;29.99;37.37
46955;BME280;32708;51.212;6.788;2023-07-16T10:28:40;100732.50;;;30.17;37.67
46955;BME280;32708;51.212;6.788;2023-07-16T10:31:24;100736.94;;;30.75;37.04
46955;BME280;32708;51.212;6.788;2023-07-16T10:34:02;100754.44;;;30.57;36.54
46955;BME280;32708;51.212;6.788;2023-07-16T10:36:39;100743.69;;;30.42;37.37
46955;BME280;32708;51.212;6.788;2023-07-16T10:39:06;100750.34;;;30.36;36.82
46955;BME280;32708;51.212;6.788;2023-07-16T10:41:33;100749.97;;;31.03;36.15
46955;BME280;32708;51.212;6.788;2023-07-16T10:44:00;100748.44;;;30.33;37.48
46955;BME280;32708;51.212;6.788;2023-07-16T10:46:27;100749.72;;;30.19;36.72
46955;BME280;32708;51.212;6.788;2023-07-16T10:48:54;100759.94;;;30.95;36.26
46955;BME280;32708;51.212;6.788;2023-07-16T10:51:26;100755.69;;;30.08;36.83
46955;BME280;32708;51.212;6.788;2023-07-16T10:53:56;100749.41;;;30.52;35.70
46955;BME280;32708;51.212;6.788;2023-07-16T10:56:22;100747.09;;;30.72;35.81
46955;BME280;32708;51.212;6.788;2023-07-16T10:58:49;100741.75;;;31.40;34.99
46955;BME280;32708;51.212;6.788;2023-07-16T11:01:16;100750.63;;;31.07;35.19
46955;BME280;32708;51.212;6.788;2023-07-16T11:03:43;100742.22;;;31.38;35.03
46955;BME280;32708;51.212;6.788;2023-07-16T11:06:10;100748.97;;;31.19;34.50
46955;BME280;32708;51.212;6.788;2023-07-16T11:08:37;100743.81;;;30.95;35.54
46955;BME280;32708;51.212;6.788;2023-07-16T11:11:03;100752.47;;;31.01;35.38
46955;BME280;32708;51.212;6.788;2023-07-16T11:13:33;100748.81;;;32.34;34.02
46955;BME280;32708;51.212;6.788;2023-07-16T11:16:10;100753.47;;;32.19;34.52
46955;BME280;32708;51.212;6.788;2023-07-16T11:18:37;100749.66;;;31.54;34.79
46955;BME280;32708;51.212;6.788;2023-07-16T11:21:03;100727.31;;;32.55;32.65
46955;BME280;32708;51.212;6.788;2023-07-16T11:23:33;100751.13;;;31.77;33.81
46955;BME280;32708;51.212;6.788;2023-07-16T11:26:04;100735.56;;;32.03;33.42
46955;BME280;32708;51.212;6.788;2023-07-16T11:28:42;100747.59;;;31.86;34.28
46955;BME280;32708;51.212;6.788;2023-07-16T11:31:15;100752.53;;;32.22;33.64
46955;BME280;32708;51.212;6.788;2023-07-16T11:33:47;100755.06;;;31.17;35.37
46955;BME280;32708;51.212;6.788;2023-07-16T11:36:16;100757.34;;;30.66;35.51
46955;BME280;32708;51.212;6.788;2023-07-16T11:38:43;100766.13;;;31.25;35.40
46955;BME280;32708;51.212;6.788;2023-07-16T11:41:10;100751.69;;;31.54;34.11
46955;BME280;32708;51.212;6.788;2023-07-16T11:43:36;100753.91;;;31.28;34.39
46955;BME280;32708;51.212;6.788;2023-07-16T11:46:16;100764.19;;;31.00;35.30
46955;BME280;32708;51.212;6.788;2023-07-16T11:48:42;100767.72;;;31.13;34.89
46955;BME280;32708;51.212;6.788;2023-07-16T11:51:09;100771.91;;;31.83;34.55
46955;BME280;32708;51.212;6.788;2023-07-16T11:53:35;100773.03;;;31.95;33.88
46955;BME280;32708;51.212;6.788;2023-07-16T11:56:01;100769.16;;;32.11;33.62
46955;BME280;32708;51.212;6.788;2023-07-16T11:58:28;100767.69;;;31.57;34.56
46955;BME280;32708;51.212;6.788;2023-07-16T12:00:56;100778.53;;;31.98;34.08
46955;BME280;32708;51.212;6.788;2023-07-16T12:03:22;100776.19;;;30.91;35.48
46955;BME280;32708;51.212;6.788;2023-07-16T12:05:56;100780.59;;;31.14;35.46
46955;BME280;32708;51.212;6.788;2023-07-16T12:08:22;100783.41;;;31.14;35.40
46955;BME280;32708;51.212;6.788;2023-07-16T12:10:48;100767.78;;;30.78;34.81
46955;BME280;32708;51.212;6.788;2023-07-16T12:13:16;100775.66;;;30.49;36.24
46955;BME280;32708;51.212;6.788;2023-07-16T12:15:42;100763.94;;;31.29;34.67
46955;BME280;32708;51.212;6.788;2023-07-16T12:18:08;100774.69;;;30.77;35.25
46955;BME280;32708;51.212;6.788;2023-07-16T12:20:36;100772.13;;;31.36;34.90
46955;BME280;32708;51.212;6.788;2023-07-16T12:23:03;100772.13;;;31.14;36.27
46955;BME280;32708;51.212;6.788;2023-07-16T12:25:30;100776.31;;;30.65;35.71
46955;BME280;32708;51.212;6.788;2023-07-16T12:27:56;100769.47;;;30.54;35.45
46955;BME280;32708;51.212;6.788;2023-07-16T12:30:24;100770.84;;;31.59;34.28
46955;BME280;32708;51.212;6.788;2023-07-16T12:32:51;100784.84;;;31.40;34.56
46955;BME280;32708;51.212;6.788;2023-07-16T12:35:17;100771.63;;;31.59;34.13
46955;BME280;32708;51.212;6.788;2023-07-16T12:37:44;100772.25;;;31.94;33.82
46955;BME280;32708;51.212;6.788;2023-07-16T12:40:10;100780.56;;;32.75;33.30
46955;BME280;32708;51.212;6.788;2023-07-16T12:42:37;100776.72;;;32.23;34.06
46955;BME280;32708;51.212;6.788;2023-07-16T12:45:04;100784.72;;;31.44;33.77
46955;BME280;32708;51.212;6.788;2023-07-16T12:47:31;100775.78;;;32.26;33.30
46955;BME280;32708;51.212;6.788;2023-07-16T12:49:57;100773.28;;;31.78;33.77
46955;BME280;32708;51.212;6.788;2023-07-16T12:52:28;100775.88;;;31.64;33.79
46955;BME280;32708;51.212;6.788;2023-07-16T12:54:56;100773.34;;;31.97;33.56
46955;BME280;32708;51.212;6.788;2023-07-16T12:57:22;100773.09;;;31.20;33.58
46955;BME280;32708;51.212;6.788;2023-07-16T12:59:49;100790.19;;;31.38;33.68